sensor_id;sensor_type;location;lat;lon;timestamp;pressure;altitude;pressure_sealevel;temperature;humidity
11672;BME280;5892;43.412;24.612;2023-01-29T00:02:08;100257.66;;;1.57;100.00
11672;BME280;5892;43.412;24.612;2023-01-29T00:04:36;100258.91;;;1.49;100.00
11672;BME280;5892;43.412;24.612;2023-01-29T00:07:03;100242.53;;;1.34;100.00
11672;BME280;5892;43.412;24.612;2023-01-29T00:09:29;100275.91;;;1.50;100.00
11672;BME280;5892;43.412;24.612;2023-01-29T00:11:56;100255.84;;;1.41;100.00
11672;BME280;5892;43.412;24.612;2023-01-29T00:14:23;100262.13;;;1.46;100.00
11672;BME280;5892;43.412;24.612;2023-01-29T00:16:50;100219.34;;;1.16;100.00
11672;BME280;5892;43.412;24.612;2023-01-29T00:19:19;100254.50;;;1.43;100.00
11672;BME280;5892;43.412;24.612;2023-01-29T00:21:46;100264.47;;;1.43;100.00
11672;BME280;5892;43.412;24.612;2023-01-29T00:24:12;100238.69;;;1.30;100.00
11672;BME280;5892;43.412;24.612;2023-01-29T00:26:39;100270.22;;;1.46;100.00
11672;BME280;5892;43.412;24.612;2023-01-29T00:29:07;100269.88;;;1.43;100.00
11672;BME280;5892;43.412;24.612;2023-01-29T00:31:34;100267.75;;;1.45;100.00
11672;BME280;5892;43.412;24.612;2023-01-29T00:34:02;100273.91;;;1.40;100.00
11672;BME280;5892;43.412;24.612;2023-01-29T00:36:30;100226.19;;;1.24;100.00
11672;BME280;5892;43.412;24.612;2023-01-29T00:38:59;100267.69;;;1.40;100.00
11672;BME280;5892;43.412;24.612;2023-01-29T00:41:29;100274.22;;;1.44;100.00
11672;BME280;5892;43.412;24.612;2023-01-29T00:44:13;100276.34;;;1.42;100.00
11672;BME280;5892;43.412;24.612;2023-01-29T00:46:58;100227.38;;;1.11;100.00
11672;BME280;5892;43.412;24.612;2023-01-29T00:49:25;100240.56;;;1.30;100.00
11672;BME280;5892;43.412;24.612;2023-01-29T00:51:53;100269.06;;;1.42;100.00
11672;BME280;5892;43.412;24.612;2023-01-29T00:54:38;100272.09;;;1.46;100.00
11672;BME280;5892;43.412;24.612;2023-01-29T00:57:05;100274.03;;;1.50;100.00
11672;BME280;5892;43.412;24.612;2023-01-29T00:59:32;100268.81;;;1.44;100.00
11672;BME280;5892;43.412;24.612;2023-01-29T01:01:59;100263.59;;;1.37;100.00
11672;BME280;5892;43.412;24.612;2023-01-29T01:04:43;100275.56;;;1.41;100.00
11672;BME280;5892;43.412;24.612;2023-01-29T01:07:12;100275.28;;;1.43;100.00
11672;BME280;5892;43.412;24.612;2023-01-29T01:09:39;100261.66;;;1.33;100.00
11672;BME280;5892;43.412;24.612;2023-01-29T01:12:19;100280.13;;;1.41;100.00
11672;BME280;5892;43.412;24.612;2023-01-29T01:14:46;100283.38;;;1.43;100.00
11672;BME280;5892;43.412;24.612;2023-01-29T01:17:13;100283.06;;;1.39;100.00
11672;BME280;5892;43.412;24.612;2023-01-29T01:19:40;100257.72;;;1.18;100.00
11672;BME280;5892;43.412;24.612;2023-01-29T01:22:07;100279.25;;;1.35;100.00
11672;BME280;5892;43.412;24.612;2023-01-29T01:24:37;100276.03;;;1.38;100.00
11672;BME280;5892;43.412;24.612;2023-01-29T01:27:04;100191.75;;;0.88;100.00
11672;BME280;5892;43.412;24.612;2023-01-29T01:29:31;100291.75;;;1.41;100.00
11672;BME280;5892;43.412;24.612;2023-01-29T01:31:58;100285.53;;;1.41;100.00
11672;BME280;5892;43.412;24.612;2023-01-29T01:34:25;100293.38;;;1.42;100.00
11672;BME280;5892;43.412;24.612;2023-01-29T01:36:52;100293.88;;;1.39;100.00
11672;BME280;5892;43.412;24.612;2023-01-29T01:39:20;100292.06;;;1.45;100.00
11672;BME280;5892;43.412;24.612;2023-01-29T01:41:49;100282.25;;;1.39;100.00
11672;BME280;5892;43.412;24.612;2023-01-29T01:47:25;100260.94;;;1.20;100.00
11672;BME280;5892;43.412;24.612;2023-01-29T01:49:54;100280.13;;;1.41;100.00
11672;BME280;5892;43.412;24.612;2023-01-29T01:52:22;100263.47;;;1.27;100.00
11672;BME280;5892;43.412;24.612;2023-01-29T01:54:51;100261.06;;;1.25;100.00
11672;BME280;5892;43.412;24.612;2023-01-29T01:57:21;100262.34;;;1.23;100.00
11672;BME280;5892;43.412;24.612;2023-01-29T01:59:55;100253.13;;;1.19;100.00
11672;BME280;5892;43.412;24.612;2023-01-29T02:02:24;100289.16;;;1.30;100.00
11672;BME280;5892;43.412;24.612;2023-01-29T02:05:11;100288.66;;;1.33;100.00
11672;BME280;5892;43.412;24.612;2023-01-29T02:07:57;100300.72;;;1.47;100.00
11672;BME280;5892;43.412;24.612;2023-01-29T02:10:44;100296.88;;;1.43;100.00
11672;BME280;5892;43.412;24.612;2023-01-29T02:13:13;100301.97;;;1.39;100.00
11672;BME280;5892;43.412;24.612;2023-01-29T02:15:43;100300.16;;;1.45;100.00
11672;BME280;5892;43.412;24.612;2023-01-29T02:18:12;100292.66;;;1.52;100.00
11672;BME280;5892;43.412;24.612;2023-01-29T02:20:42;100294.81;;;1.50;100.00
11672;BME280;5892;43.412;24.612;2023-01-29T02:23:25;100293.06;;;1.39;100.00
11672;BME280;5892;43.412;24.612;2023-01-29T02:26:11;100303.84;;;1.39;100.00
11672;BME280;5892;43.412;24.612;2023-01-29T02:28:46;100319.41;;;1.32;100.00
11672;BME280;5892;43.412;24.612;2023-01-29T02:31:24;100249.31;;;1.15;100.00
11672;BME280;5892;43.412;24.612;2023-01-29T02:34:03;100314.41;;;1.40;100.00
11672;BME280;5892;43.412;24.612;2023-01-29T02:36:40;100294.50;;;1.24;100.00
11672;BME280;5892;43.412;24.612;2023-01-29T02:39:15;100313.66;;;1.45;100.00
11672;BME280;5892;43.412;24.612;2023-01-29T02:41:46;100311.38;;;1.37;100.00
11672;BME280;5892;43.412;24.612;2023-01-29T02:44:22;100316.41;;;1.28;100.00
11672;BME280;5892;43.412;24.612;2023-01-29T02:46:59;100310.25;;;1.33;100.00
11672;BME280;5892;43.412;24.612;2023-01-29T02:49:31;100324.41;;;1.40;100.00
11672;BME280;5892;43.412;24.612;2023-01-29T02:52:08;100325.53;;;1.44;100.00
11672;BME280;5892;43.412;24.612;2023-01-29T02:54:46;100299.16;;;1.29;100.00
11672;BME280;5892;43.412;24.612;2023-01-29T02:57:20;100328.47;;;1.42;100.00
11672;BME280;5892;43.412;24.612;2023-01-29T02:59:53;100314.66;;;1.39;100.00
11672;BME280;5892;43.412;24.612;2023-01-29T03:02:25;100322.19;;;1.37;100.00
11672;BME280;5892;43.412;24.612;2023-01-29T03:04:59;100320.06;;;1.39;100.00
11672;BME280;5892;43.412;24.612;2023-01-29T03:07:34;100328.22;;;1.44;100.00
11672;BME280;5892;43.412;24.612;2023-01-29T03:10:12;100337.72;;;1.46;100.00
11672;BME280;5892;43.412;24.612;2023-01-29T03:12:43;100322.94;;;1.32;100.00
11672;BME280;5892;43.412;24.612;2023-01-29T03:15:17;100313.88;;;1.21;100.00
11672;BME280;5892;43.412;24.612;2023-01-29T03:17:53;100296.03;;;1.20;100.00
11672;BME280;5892;43.412;24.612;2023-01-29T03:20:25;100326.44;;;1.33;100.00
11672;BME280;5892;43.412;24.612;2023-01-29T03:22:59;100334.97;;;1.41;100.00
11672;BME280;5892;43.412;24.612;2023-01-29T03:25:28;100338.72;;;1.40;100.00
11672;BME280;5892;43.412;24.612;2023-01-29T03:28:15;100338.38;;;1.37;100.00
11672;BME280;5892;43.412;24.612;2023-01-29T03:31:03;100331.53;;;1.29;100.00
11672;BME280;5892;43.412;24.612;2023-01-29T03:33:50;100333.59;;;1.22;100.00
11672;BME280;5892;43.412;24.612;2023-01-29T03:36:20;100350.50;;;1.34;100.00
11672;BME280;5892;43.412;24.612;2023-01-29T03:38:48;100343.63;;;1.26;100.00
11672;BME280;5892;43.412;24.612;2023-01-29T03:41:22;100312.75;;;1.17;100.00
11672;BME280;5892;43.412;24.612;2023-01-29T03:43:59;100329.38;;;1.09;100.00
11672;BME280;5892;43.412;24.612;2023-01-29T03:46:37;100351.63;;;1.38;100.00
11672;BME280;5892;43.412;24.612;2023-01-29T03:49:11;100338.91;;;1.17;100.00
11672;BME280;5892;43.412;24.612;2023-01-29T03:51:50;100347.44;;;1.25;100.00
11672;BME280;5892;43.412;24.612;2023-01-29T03:54:22;100342.25;;;1.24;100.00
11672;BME280;5892;43.412;24.612;2023-01-29T03:56:56;100345.66;;;1.36;100.00
11672;BME280;5892;43.412;24.612;2023-01-29T03:59:33;100325.91;;;1.31;100.00
11672;BME280;5892;43.412;24.612;2023-01-29T04:02:05;100353.59;;;1.43;100.00
11672;BME280;5892;43.412;24.612;2023-01-29T04:04:37;100350.88;;;1.43;100.00
11672;BME280;5892;43.412;24.612;2023-01-29T04:07:09;100351.47;;;1.45;100.00
11672;BME280;5892;43.412;24.612;2023-01-29T04:09:41;100284.91;;;0.95;100.00
11672;BME280;5892;43.412;24.612;2023-01-29T04:12:13;100353.28;;;1.39;100.00
11672;BME280;5892;43.412;24.612;2023-01-29T04:14:42;100357.69;;;1.45;100.00
11672;BME280;5892;43.412;24.612;2023-01-29T04:17:15;100351.94;;;1.42;100.00
11672;BME280;5892;43.412;24.612;2023-01-29T04:19:44;100351.31;;;1.35;100.00
11672;BME280;5892;43.412;24.612;2023-01-29T04:22:14;100358.50;;;1.46;100.00
11672;BME280;5892;43.412;24.612;2023-01-29T04:24:42;100347.00;;;1.34;100.00
11672;BME280;5892;43.412;24.612;2023-01-29T04:27:22;100355.22;;;1.44;100.00
11672;BME280;5892;43.412;24.612;2023-01-29T04:30:05;100366.59;;;1.46;100.00
11672;BME280;5892;43.412;24.612;2023-01-29T04:32:50;100360.38;;;1.45;100.00
11672;BME280;5892;43.412;24.612;2023-01-29T04:35:27;100353.50;;;1.38;100.00
11672;BME280;5892;43.412;24.612;2023-01-29T04:38:05;100371.56;;;1.54;100.00
11672;BME280;5892;43.412;24.612;2023-01-29T04:40:42;100373.69;;;1.52;100.00
11672;BME280;5892;43.412;24.612;2023-01-29T04:43:17;100383.94;;;1.50;100.00
11672;BME280;5892;43.412;24.612;2023-01-29T04:45:56;100380.47;;;1.54;100.00
11672;BME280;5892;43.412;24.612;2023-01-29T04:48:30;100352.63;;;1.32;100.00
11672;BME280;5892;43.412;24.612;2023-01-29T04:51:05;100387.75;;;1.54;100.00
11672;BME280;5892;43.412;24.612;2023-01-29T04:53:38;100380.72;;;1.53;100.00
11672;BME280;5892;43.412;24.612;2023-01-29T04:56:11;100356.72;;;1.35;100.00
11672;BME280;5892;43.412;24.612;2023-01-29T04:58:44;100397.81;;;1.58;100.00
11672;BME280;5892;43.412;24.612;2023-01-29T05:01:15;100393.69;;;1.51;100.00
11672;BME280;5892;43.412;24.612;2023-01-29T05:03:48;100398.75;;;1.47;100.00
11672;BME280;5892;43.412;24.612;2023-01-29T05:06:17;100407.72;;;1.53;100.00
11672;BME280;5892;43.412;24.612;2023-01-29T05:08:46;100408.00;;;1.51;100.00
11672;BME280;5892;43.412;24.612;2023-01-29T05:11:16;100412.06;;;1.54;100.00
11672;BME280;5892;43.412;24.612;2023-01-29T05:13:44;100414.84;;;1.59;100.00
11672;BME280;5892;43.412;24.612;2023-01-29T05:16:16;100414.78;;;1.54;100.00
11672;BME280;5892;43.412;24.612;2023-01-29T05:18:46;100408.78;;;1.52;100.00
11672;BME280;5892;43.412;24.612;2023-01-29T05:21:13;100408.06;;;1.56;100.00
11672;BME280;5892;43.412;24.612;2023-01-29T05:23:40;100412.72;;;1.61;100.00
11672;BME280;5892;43.412;24.612;2023-01-29T05:26:23;100415.34;;;1.56;100.00
11672;BME280;5892;43.412;24.612;2023-01-29T05:29:08;100416.19;;;1.56;100.00
11672;BME280;5892;43.412;24.612;2023-01-29T05:31:36;100408.69;;;1.63;100.00
11672;BME280;5892;43.412;24.612;2023-01-29T05:34:04;100423.75;;;1.59;100.00
11672;BME280;5892;43.412;24.612;2023-01-29T05:36:31;100425.16;;;1.62;100.00
11672;BME280;5892;43.412;24.612;2023-01-29T05:38:58;100424.06;;;1.63;100.00
11672;BME280;5892;43.412;24.612;2023-01-29T05:41:25;100424.91;;;1.63;100.00
11672;BME280;5892;43.412;24.612;2023-01-29T05:43:52;100424.16;;;1.68;100.00
11672;BME280;5892;43.412;24.612;2023-01-29T05:46:18;100427.03;;;1.61;100.00
11672;BME280;5892;43.412;24.612;2023-01-29T05:48:45;100424.91;;;1.63;100.00
11672;BME280;5892;43.412;24.612;2023-01-29T05:51:13;100436.03;;;1.67;100.00
11672;BME280;5892;43.412;24.612;2023-01-29T05:53:40;100439.53;;;1.67;100.00
11672;BME280;5892;43.412;24.612;2023-01-29T05:56:07;100439.81;;;1.66;100.00
11672;BME280;5892;43.412;24.612;2023-01-29T05:58:34;100438.97;;;1.65;100.00
11672;BME280;5892;43.412;24.612;2023-01-29T06:01:09;100439.28;;;1.69;100.00
11672;BME280;5892;43.412;24.612;2023-01-29T06:03:37;100444.69;;;1.69;100.00
11672;BME280;5892;43.412;24.612;2023-01-29T06:06:04;100453.94;;;1.73;100.00
11672;BME280;5892;43.412;24.612;2023-01-29T06:08:33;100449.19;;;1.80;100.00
11672;BME280;5892;43.412;24.612;2023-01-29T06:10:59;100462.94;;;1.79;100.00
11672;BME280;5892;43.412;24.612;2023-01-29T06:13:26;100430.97;;;1.54;100.00
11672;BME280;5892;43.412;24.612;2023-01-29T06:15:53;100443.88;;;1.68;100.00
11672;BME280;5892;43.412;24.612;2023-01-29T06:18:22;100444.75;;;1.74;100.00
11672;BME280;5892;43.412;24.612;2023-01-29T06:20:48;100463.38;;;1.70;100.00
11672;BME280;5892;43.412;24.612;2023-01-29T06:23:15;100475.13;;;1.81;100.00
11672;BME280;5892;43.412;24.612;2023-01-29T06:25:44;100472.75;;;1.85;100.00
11672;BME280;5892;43.412;24.612;2023-01-29T06:28:11;100488.53;;;1.93;100.00
11672;BME280;5892;43.412;24.612;2023-01-29T06:30:37;100467.91;;;1.87;100.00
11672;BME280;5892;43.412;24.612;2023-01-29T06:33:04;100480.75;;;1.96;100.00
11672;BME280;5892;43.412;24.612;2023-01-29T06:35:31;100446.41;;;1.75;100.00
11672;BME280;5892;43.412;24.612;2023-01-29T06:37:58;100496.72;;;1.98;100.00
11672;BME280;5892;43.412;24.612;2023-01-29T06:40:25;100498.09;;;2.00;100.00
11672;BME280;5892;43.412;24.612;2023-01-29T06:42:53;100498.16;;;2.05;100.00
11672;BME280;5892;43.412;24.612;2023-01-29T06:45:20;100505.84;;;2.13;100.00
11672;BME280;5892;43.412;24.612;2023-01-29T06:47:47;100506.69;;;2.14;100.00
11672;BME280;5892;43.412;24.612;2023-01-29T06:50:13;100481.63;;;2.02;100.00
11672;BME280;5892;43.412;24.612;2023-01-29T06:52:40;100515.69;;;2.20;100.00
11672;BME280;5892;43.412;24.612;2023-01-29T06:55:08;100468.88;;;1.97;100.00
11672;BME280;5892;43.412;24.612;2023-01-29T06:57:35;100510.44;;;2.13;100.00
11672;BME280;5892;43.412;24.612;2023-01-29T07:00:04;100501.00;;;2.16;100.00
11672;BME280;5892;43.412;24.612;2023-01-29T07:02:33;100514.22;;;2.34;100.00
11672;BME280;5892;43.412;24.612;2023-01-29T07:05:00;100520.75;;;2.38;100.00
11672;BME280;5892;43.412;24.612;2023-01-29T07:07:27;100522.66;;;2.37;100.00
11672;BME280;5892;43.412;24.612;2023-01-29T07:09:53;100494.84;;;2.20;100.00
11672;BME280;5892;43.412;24.612;2023-01-29T07:12:20;100531.16;;;2.46;100.00
11672;BME280;5892;43.412;24.612;2023-01-29T07:14:47;100531.16;;;2.46;100.00
11672;BME280;5892;43.412;24.612;2023-01-29T07:17:15;100524.03;;;2.40;100.00
11672;BME280;5892;43.412;24.612;2023-01-29T07:19:43;100482.66;;;2.18;100.00
11672;BME280;5892;43.412;24.612;2023-01-29T07:22:09;100506.94;;;2.34;100.00
11672;BME280;5892;43.412;24.612;2023-01-29T07:24:36;100525.75;;;2.46;100.00
11672;BME280;5892;43.412;24.612;2023-01-29T07:27:03;100525.22;;;2.49;100.00
11672;BME280;5892;43.412;24.612;2023-01-29T07:29:30;100537.56;;;2.40;100.00
11672;BME280;5892;43.412;24.612;2023-01-29T07:31:57;100529.06;;;2.31;100.00
11672;BME280;5892;43.412;24.612;2023-01-29T07:34:26;100518.19;;;2.48;100.00
11672;BME280;5892;43.412;24.612;2023-01-29T07:36:55;100535.66;;;2.62;100.00
11672;BME280;5892;43.412;24.612;2023-01-29T07:39:22;100535.72;;;2.67;100.00
11672;BME280;5892;43.412;24.612;2023-01-29T07:41:49;100533.34;;;2.71;100.00
11672;BME280;5892;43.412;24.612;2023-01-29T07:44:16;100521.25;;;2.56;100.00
11672;BME280;5892;43.412;24.612;2023-01-29T07:46:43;100534.34;;;2.65;100.00
11672;BME280;5892;43.412;24.612;2023-01-29T07:49:10;100543.28;;;2.65;100.00
11672;BME280;5892;43.412;24.612;2023-01-29T07:51:38;100545.53;;;2.73;100.00
11672;BME280;5892;43.412;24.612;2023-01-29T07:54:05;100537.56;;;2.62;100.00
11672;BME280;5892;43.412;24.612;2023-01-29T07:56:33;100556.75;;;2.82;100.00
11672;BME280;5892;43.412;24.612;2023-01-29T07:59:00;100552.34;;;2.76;100.00
11672;BME280;5892;43.412;24.612;2023-01-29T08:01:27;100569.69;;;2.80;100.00
11672;BME280;5892;43.412;24.612;2023-01-29T08:03:54;100541.41;;;2.66;100.00
11672;BME280;5892;43.412;24.612;2023-01-29T08:06:21;100557.94;;;2.69;100.00
11672;BME280;5892;43.412;24.612;2023-01-29T08:08:50;100576.88;;;2.69;100.00
11672;BME280;5892;43.412;24.612;2023-01-29T08:11:18;100572.28;;;2.70;100.00
11672;BME280;5892;43.412;24.612;2023-01-29T08:13:45;100567.00;;;2.80;100.00
11672;BME280;5892;43.412;24.612;2023-01-29T08:16:12;100497.44;;;2.32;100.00
11672;BME280;5892;43.412;24.612;2023-01-29T08:18:38;100577.16;;;2.94;100.00
11672;BME280;5892;43.412;24.612;2023-01-29T08:21:08;100551.75;;;2.74;100.00
11672;BME280;5892;43.412;24.612;2023-01-29T08:23:36;100581.06;;;3.04;100.00
11672;BME280;5892;43.412;24.612;2023-01-29T08:26:05;100583.03;;;3.08;100.00
11672;BME280;5892;43.412;24.612;2023-01-29T08:28:33;100580.09;;;3.15;100.00
11672;BME280;5892;43.412;24.612;2023-01-29T08:31:00;100561.03;;;3.05;100.00
11672;BME280;5892;43.412;24.612;2023-01-29T08:33:27;100588.66;;;3.28;100.00
11672;BME280;5892;43.412;24.612;2023-01-29T08:36:18;100581.38;;;3.34;100.00
11672;BME280;5892;43.412;24.612;2023-01-29T08:38:46;100590.47;;;3.50;100.00
11672;BME280;5892;43.412;24.612;2023-01-29T08:41:14;100591.22;;;3.40;100.00
11672;BME280;5892;43.412;24.612;2023-01-29T08:43:41;100495.81;;;2.79;100.00
11672;BME280;5892;43.412;24.612;2023-01-29T08:46:10;100598.19;;;3.36;100.00
11672;BME280;5892;43.412;24.612;2023-01-29T08:48:37;100599.53;;;3.33;100.00
11672;BME280;5892;43.412;24.612;2023-01-29T08:51:07;100593.19;;;3.50;100.00
11672;BME280;5892;43.412;24.612;2023-01-29T08:53:34;100562.97;;;3.36;100.00
11672;BME280;5892;43.412;24.612;2023-01-29T08:56:02;100592.91;;;3.51;100.00
11672;BME280;5892;43.412;24.612;2023-01-29T08:58:31;100605.19;;;3.59;100.00
11672;BME280;5892;43.412;24.612;2023-01-29T09:01:05;100605.06;;;3.75;100.00
11672;BME280;5892;43.412;24.612;2023-01-29T09:03:32;100597.31;;;3.89;100.00
11672;BME280;5892;43.412;24.612;2023-01-29T09:05:59;100548.13;;;3.70;100.00
11672;BME280;5892;43.412;24.612;2023-01-29T09:08:26;100442.31;;;3.18;100.00
11672;BME280;5892;43.412;24.612;2023-01-29T09:10:57;100600.91;;;4.00;100.00
11672;BME280;5892;43.412;24.612;2023-01-29T09:13:24;100595.81;;;4.08;100.00
11672;BME280;5892;43.412;24.612;2023-01-29T09:15:52;100591.84;;;4.21;100.00
11672;BME280;5892;43.412;24.612;2023-01-29T09:18:19;100595.06;;;4.13;100.00
11672;BME280;5892;43.412;24.612;2023-01-29T09:20:46;100535.97;;;3.78;100.00
11672;BME280;5892;43.412;24.612;2023-01-29T09:23:13;100582.69;;;4.32;100.00
11672;BME280;5892;43.412;24.612;2023-01-29T09:25:42;100583.31;;;4.44;100.00
11672;BME280;5892;43.412;24.612;2023-01-29T09:28:09;100584.63;;;4.37;100.00
11672;BME280;5892;43.412;24.612;2023-01-29T09:30:36;100553.97;;;4.41;100.00
11672;BME280;5892;43.412;24.612;2023-01-29T09:33:04;100580.69;;;4.64;100.00
11672;BME280;5892;43.412;24.612;2023-01-29T09:35:32;100585.63;;;4.78;100.00
11672;BME280;5892;43.412;24.612;2023-01-29T09:37:59;100583.50;;;4.90;100.00
11672;BME280;5892;43.412;24.612;2023-01-29T09:40:32;100587.31;;;4.89;100.00
11672;BME280;5892;43.412;24.612;2023-01-29T09:43:03;100579.69;;;4.81;100.00
11672;BME280;5892;43.412;24.612;2023-01-29T09:45:32;100555.72;;;4.62;100.00
11672;BME280;5892;43.412;24.612;2023-01-29T09:48:01;100576.16;;;4.80;100.00
11672;BME280;5892;43.412;24.612;2023-01-29T09:50:36;100575.84;;;4.82;100.00
11672;BME280;5892;43.412;24.612;2023-01-29T09:53:13;100577.81;;;4.86;100.00
11672;BME280;5892;43.412;24.612;2023-01-29T09:55:45;100572.09;;;4.93;100.00
11672;BME280;5892;43.412;24.612;2023-01-29T09:58:21;100578.69;;;5.07;100.00
11672;BME280;5892;43.412;24.612;2023-01-29T10:00:57;100573.81;;;5.19;100.00
11672;BME280;5892;43.412;24.612;2023-01-29T10:03:46;100566.22;;;5.21;100.00
11672;BME280;5892;43.412;24.612;2023-01-29T10:06:29;100565.44;;;5.46;100.00
11672;BME280;5892;43.412;24.612;2023-01-29T10:09:17;100546.97;;;5.58;100.00
11672;BME280;5892;43.412;24.612;2023-01-29T10:11:57;100553.22;;;5.59;100.00
11672;BME280;5892;43.412;24.612;2023-01-29T10:14:33;100565.72;;;5.70;100.00
11672;BME280;5892;43.412;24.612;2023-01-29T10:17:18;100551.59;;;5.88;100.00
11672;BME280;5892;43.412;24.612;2023-01-29T10:20:09;100552.66;;;5.77;100.00
11672;BME280;5892;43.412;24.612;2023-01-29T10:22:57;100550.50;;;5.84;100.00
11672;BME280;5892;43.412;24.612;2023-01-29T10:25:27;100551.84;;;5.71;100.00
11672;BME280;5892;43.412;24.612;2023-01-29T10:27:56;100558.91;;;5.72;100.00
11672;BME280;5892;43.412;24.612;2023-01-29T10:30:31;100464.63;;;5.27;100.00
11672;BME280;5892;43.412;24.612;2023-01-29T10:33:01;100531.72;;;5.82;100.00
11672;BME280;5892;43.412;24.612;2023-01-29T10:35:33;100507.00;;;5.64;100.00
11672;BME280;5892;43.412;24.612;2023-01-29T10:38:15;100540.69;;;5.78;100.00
11672;BME280;5892;43.412;24.612;2023-01-29T10:40:49;100551.59;;;5.88;100.00
11672;BME280;5892;43.412;24.612;2023-01-29T10:43:23;100541.81;;;5.87;100.00
11672;BME280;5892;43.412;24.612;2023-01-29T10:46:01;100518.69;;;5.74;100.00
11672;BME280;5892;43.412;24.612;2023-01-29T10:48:40;100512.94;;;5.76;100.00
11672;BME280;5892;43.412;24.612;2023-01-29T10:51:19;100527.94;;;5.88;100.00
11672;BME280;5892;43.412;24.612;2023-01-29T10:53:59;100535.81;;;6.00;100.00
11672;BME280;5892;43.412;24.612;2023-01-29T10:56:40;100527.69;;;5.90;100.00
11672;BME280;5892;43.412;24.612;2023-01-29T10:59:31;100530.06;;;5.81;100.00
11672;BME280;5892;43.412;24.612;2023-01-29T11:02:01;100520.84;;;5.72;100.00
11672;BME280;5892;43.412;24.612;2023-01-29T11:04:29;100453.19;;;5.30;100.00
11672;BME280;5892;43.412;24.612;2023-01-29T11:06:58;100490.69;;;5.74;100.00
11672;BME280;5892;43.412;24.612;2023-01-29T11:09:30;100508.63;;;5.95;100.00
11672;BME280;5892;43.412;24.612;2023-01-29T11:12:00;100510.78;;;6.03;100.00
11672;BME280;5892;43.412;24.612;2023-01-29T11:14:40;100506.41;;;6.07;100.00
11672;BME280;5892;43.412;24.612;2023-01-29T11:17:14;100424.38;;;5.39;100.00
11672;BME280;5892;43.412;24.612;2023-01-29T11:19:42;100451.28;;;5.56;100.00
11672;BME280;5892;43.412;24.612;2023-01-29T11:22:14;100475.97;;;5.85;100.00
11672;BME280;5892;43.412;24.612;2023-01-29T11:24:43;100488.50;;;5.86;100.00
11672;BME280;5892;43.412;24.612;2023-01-29T11:27:37;100484.13;;;6.00;100.00
11672;BME280;5892;43.412;24.612;2023-01-29T11:30:14;100487.94;;;5.79;100.00
11672;BME280;5892;43.412;24.612;2023-01-29T11:32:42;100486.06;;;5.64;100.00
11672;BME280;5892;43.412;24.612;2023-01-29T11:35:20;100472.75;;;5.52;100.00
11672;BME280;5892;43.412;24.612;2023-01-29T11:37:48;100458.59;;;5.61;100.00
11672;BME280;5892;43.412;24.612;2023-01-29T11:40:36;100474.91;;;5.81;100.00
11672;BME280;5892;43.412;24.612;2023-01-29T11:43:21;100471.63;;;5.79;100.00
11672;BME280;5892;43.412;24.612;2023-01-29T11:45:50;100472.72;;;5.93;100.00
11672;BME280;5892;43.412;24.612;2023-01-29T11:48:20;100435.44;;;5.99;100.00
11672;BME280;5892;43.412;24.612;2023-01-29T11:50:52;100465.53;;;6.32;100.00
11672;BME280;5892;43.412;24.612;2023-01-29T11:53:33;100471.81;;;6.23;100.00
11672;BME280;5892;43.412;24.612;2023-01-29T11:56:06;100444.41;;;5.99;100.00
11672;BME280;5892;43.412;24.612;2023-01-29T11:58:42;100475.34;;;6.23;100.00
11672;BME280;5892;43.412;24.612;2023-01-29T12:01:10;100411.81;;;5.79;100.00
11672;BME280;5892;43.412;24.612;2023-01-29T12:03:40;100474.81;;;6.21;100.00
11672;BME280;5892;43.412;24.612;2023-01-29T12:06:16;100476.22;;;6.09;100.00
11672;BME280;5892;43.412;24.612;2023-01-29T12:08:52;100474.03;;;6.11;100.00
11672;BME280;5892;43.412;24.612;2023-01-29T12:11:27;100466.72;;;6.01;100.00
11672;BME280;5892;43.412;24.612;2023-01-29T12:14:21;100364.63;;;5.09;100.00
11672;BME280;5892;43.412;24.612;2023-01-29T12:17:06;100461.28;;;5.76;100.00
11672;BME280;5892;43.412;24.612;2023-01-29T12:19:39;100456.69;;;5.66;100.00
11672;BME280;5892;43.412;24.612;2023-01-29T12:22:13;100452.06;;;5.72;100.00
11672;BME280;5892;43.412;24.612;2023-01-29T12:24:48;100447.69;;;5.76;100.00
11672;BME280;5892;43.412;24.612;2023-01-29T12:27:21;100461.03;;;5.77;100.00
11672;BME280;5892;43.412;24.612;2023-01-29T12:29:55;100467.53;;;5.86;100.00
11672;BME280;5892;43.412;24.612;2023-01-29T12:32:29;100452.88;;;5.87;100.00
11672;BME280;5892;43.412;24.612;2023-01-29T12:35:06;100459.38;;;5.86;100.00
11672;BME280;5892;43.412;24.612;2023-01-29T12:37:42;100465.09;;;6.00;100.00
11672;BME280;5892;43.412;24.612;2023-01-29T12:40:12;100463.19;;;6.06;100.00
11672;BME280;5892;43.412;24.612;2023-01-29T12:42:46;100446.59;;;5.92;100.00
11672;BME280;5892;43.412;24.612;2023-01-29T12:45:16;100464.03;;;5.91;100.00
11672;BME280;5892;43.412;24.612;2023-01-29T12:47:47;100426.53;;;5.63;100.00
11672;BME280;5892;43.412;24.612;2023-01-29T12:50:19;100485.22;;;5.84;100.00
11672;BME280;5892;43.412;24.612;2023-01-29T12:52:49;100468.09;;;5.73;100.00
11672;BME280;5892;43.412;24.612;2023-01-29T12:55:21;100471.41;;;5.65;100.00
11672;BME280;5892;43.412;24.612;2023-01-29T12:57:55;100404.56;;;5.13;100.00
11672;BME280;5892;43.412;24.612;2023-01-29T13:00:25;100455.66;;;5.32;100.00
11672;BME280;5892;43.412;24.612;2023-01-29T13:02:55;100439.34;;;4.96;100.00
11672;BME280;5892;43.412;24.612;2023-01-29T13:05:25;100477.06;;;5.08;100.00
11672;BME280;5892;43.412;24.612;2023-01-29T13:07:57;100474.66;;;5.06;100.00
11672;BME280;5892;43.412;24.612;2023-01-29T13:10:29;100476.81;;;5.04;100.00
11672;BME280;5892;43.412;24.612;2023-01-29T13:13:03;100484.41;;;4.97;100.00
11672;BME280;5892;43.412;24.612;2023-01-29T13:15:34;100463.47;;;4.83;100.00
11672;BME280;5892;43.412;24.612;2023-01-29T13:18:19;100469.75;;;5.03;100.00